createdAt,value
2023-04-22T00:01:45.330Z,0
2023-04-22T00:08:05.441Z,0
2023-04-22T00:14:28.383Z,0
2023-04-22T00:20:48.393Z,0
2023-04-22T00:27:11.385Z,0
2023-04-22T00:33:31.471Z,0
2023-04-22T00:39:54.377Z,0
2023-04-22T00:46:14.437Z,0
2023-04-22T00:52:37.371Z,0
2023-04-22T00:58:57.417Z,0
2023-04-22T01:05:20.723Z,0
2023-04-22T01:11:40.422Z,0
2023-04-22T01:18:03.487Z,0
2023-04-22T01:24:23.460Z,0
2023-04-22T01:30:46.349Z,0
2023-04-22T01:37:06.434Z,0
2023-04-22T01:43:29.340Z,0
2023-04-22T01:49:49.460Z,0
2023-04-22T01:56:12.372Z,0
2023-04-22T02:02:32.511Z,0
2023-04-22T02:08:55.357Z,0
2023-04-22T02:15:15.405Z,0
2023-04-22T02:21:38.316Z,0
2023-04-22T02:27:58.448Z,0
2023-04-22T02:34:21.360Z,0
2023-04-22T02:40:41.412Z,0
2023-04-22T02:47:04.417Z,0
2023-04-22T02:53:24.414Z,0
2023-04-22T02:59:47.356Z,0
2023-04-22T03:06:07.427Z,0
2023-04-22T03:12:30.322Z,0
2023-04-22T03:35:36.288Z,0
2023-04-22T03:41:56.335Z,0
2023-04-22T03:48:19.404Z,0
2023-04-22T03:54:39.346Z,0
2023-04-22T04:01:02.350Z,1
2023-04-22T04:07:22.318Z,4
2023-04-22T04:13:45.348Z,11
2023-04-22T04:20:06.163Z,23
2023-04-22T04:26:29.334Z,42
2023-04-22T04:32:49.418Z,63
2023-04-22T04:39:12.387Z,100
2023-04-22T04:45:32.368Z,157
2023-04-22T04:51:55.485Z,216
2023-04-22T04:58:15.344Z,224
2023-04-22T05:04:38.515Z,265
2023-04-22T05:10:58.503Z,373
2023-04-22T05:17:21.425Z,568
2023-04-22T05:23:41.367Z,715
2023-04-22T05:30:04.379Z,833
2023-04-22T05:36:24.348Z,807
2023-04-22T05:42:47.424Z,859
2023-04-22T05:49:07.356Z,1016
2023-04-22T05:55:30.409Z,1452
2023-04-22T06:01:50.355Z,907
2023-04-22T06:08:13.354Z,793
2023-04-22T06:14:33.343Z,1031
2023-04-22T06:20:56.335Z,1183
2023-04-22T06:27:16.424Z,1255
2023-04-22T06:33:39.341Z,1470
2023-04-22T06:39:59.340Z,1330
2023-04-22T06:46:22.434Z,1318
2023-04-22T06:52:42.344Z,1551
2023-04-22T06:59:05.401Z,1709
2023-04-22T07:05:25.414Z,1474
2023-04-22T07:11:48.356Z,1448
2023-04-22T07:18:08.586Z,1480
2023-04-22T07:24:31.367Z,1672
2023-04-22T07:30:51.329Z,1699
2023-04-22T07:37:14.360Z,1772
2023-04-22T07:43:34.652Z,1767
2023-04-22T07:49:57.387Z,1824
2023-04-22T07:56:17.316Z,2074
2023-04-22T08:02:40.394Z,2350
2023-04-22T08:09:00.366Z,2628
2023-04-22T08:15:23.349Z,3003
2023-04-22T08:21:43.381Z,2794
2023-04-22T08:28:06.337Z,3160
2023-04-22T08:34:26.405Z,3479
2023-04-22T08:40:49.392Z,3766
2023-04-22T08:47:09.495Z,3439
2023-04-22T09:11:08.315Z,3049
2023-04-22T09:17:31.351Z,3025
2023-04-22T09:23:51.321Z,2039
2023-04-22T09:30:14.421Z,2793
2023-04-22T09:36:34.356Z,3791
2023-04-22T09:42:57.366Z,3092
2023-04-22T09:49:17.362Z,4137
2023-04-22T09:55:40.352Z,4228
2023-04-22T10:02:00.351Z,4271
2023-04-22T10:08:23.496Z,4255
2023-04-22T10:14:43.369Z,5366
2023-04-22T10:21:06.333Z,4854
2023-04-22T10:27:26.352Z,2792
2023-04-22T10:33:49.349Z,4088
2023-04-22T10:40:09.335Z,5446
2023-04-22T10:46:32.412Z,4233
2023-04-22T10:52:52.321Z,4847
2023-04-22T10:59:15.349Z,4460
2023-04-22T11:05:35.411Z,6462
2023-04-22T11:11:58.326Z,4770
2023-04-22T11:18:18.388Z,4803
2023-04-22T11:24:41.350Z,4606
2023-04-22T11:31:01.331Z,4976
2023-04-22T11:37:24.336Z,6045
2023-04-22T11:43:44.357Z,5543
2023-04-22T11:50:07.387Z,4759
2023-04-22T11:56:27.333Z,4385
2023-04-22T12:02:50.488Z,4532
2023-04-22T12:09:11.564Z,4094
2023-04-22T12:15:33.335Z,4591
2023-04-22T12:21:53.407Z,3957
2023-04-22T12:28:16.315Z,3854
2023-04-22T12:34:36.378Z,5216
2023-04-22T12:40:59.369Z,5692
2023-04-22T12:47:19.351Z,6672
2023-04-22T12:53:42.347Z,4638
2023-04-22T13:00:02.393Z,3392
2023-04-22T13:06:25.366Z,2954
2023-04-22T13:12:45.321Z,2401
2023-04-22T13:19:08.392Z,1747
2023-04-22T13:25:28.344Z,1845
2023-04-22T13:31:51.336Z,2716
2023-04-22T13:38:11.378Z,2048
2023-04-22T13:44:34.324Z,1383
2023-04-22T13:50:54.354Z,929
2023-04-22T13:57:17.371Z,961
2023-04-22T14:03:37.350Z,1109
2023-04-22T14:10:00.357Z,955
2023-04-22T14:16:20.364Z,831
2023-04-22T14:22:43.340Z,654
2023-04-22T14:29:03.336Z,857
2023-04-22T14:35:26.352Z,1382
2023-04-22T14:41:46.383Z,2069
2023-04-22T15:05:11.377Z,1486
2023-04-22T15:11:34.320Z,1364
2023-04-22T15:17:54.400Z,1162
2023-04-22T15:24:17.359Z,986
2023-04-22T15:30:37.335Z,1101
2023-04-22T15:37:00.331Z,992
2023-04-22T15:43:20.359Z,716
2023-04-22T15:49:43.363Z,752
2023-04-22T15:56:03.342Z,462
2023-04-22T16:02:26.465Z,493
2023-04-22T16:08:46.372Z,405
2023-04-22T16:15:09.316Z,346
2023-04-22T16:21:29.387Z,220
2023-04-22T16:27:52.317Z,233
2023-04-22T16:34:12.329Z,294
2023-04-22T16:40:35.431Z,278
2023-04-22T16:46:55.326Z,222
2023-04-22T16:53:18.344Z,203
2023-04-22T16:59:38.474Z,166
2023-04-22T17:06:01.313Z,159
2023-04-22T17:12:21.354Z,207
2023-04-22T17:18:44.660Z,187
2023-04-22T17:25:04.347Z,124
2023-04-22T17:31:27.363Z,144
2023-04-22T17:37:47.363Z,165
2023-04-22T17:44:10.367Z,124
2023-04-22T17:50:30.336Z,97
2023-04-22T17:56:53.351Z,67
2023-04-22T18:03:13.450Z,52
2023-04-22T18:09:36.371Z,42
2023-04-22T18:15:56.411Z,35
2023-04-22T18:22:19.337Z,31
2023-04-22T18:28:39.334Z,21
2023-04-22T18:35:02.364Z,16
2023-04-22T18:41:22.307Z,10
2023-04-22T18:47:45.419Z,6
2023-04-22T18:54:05.458Z,2
2023-04-22T19:00:28.330Z,1
2023-04-22T19:06:48.344Z,0
2023-04-22T19:13:18.812Z,0
2023-04-22T19:19:31.348Z,0
2023-04-22T19:25:54.322Z,0
2023-04-22T19:32:14.346Z,0
2023-04-22T19:38:37.380Z,0
2023-04-22T19:44:57.330Z,0
2023-04-22T19:51:20.472Z,0
2023-04-22T19:57:40.325Z,0
2023-04-22T20:04:03.697Z,0
2023-04-22T20:10:23.400Z,0
2023-04-22T20:16:46.391Z,0
2023-04-22T20:23:06.315Z,0
2023-04-22T20:29:29.384Z,0
2023-04-22T20:45:00.285Z,0
2023-04-22T20:51:20.331Z,0
2023-04-22T20:57:43.321Z,0
2023-04-22T21:04:03.660Z,0
2023-04-22T21:10:26.343Z,0
2023-04-22T21:16:46.351Z,0
2023-04-22T21:23:09.370Z,0
2023-04-22T21:29:29.327Z,0
2023-04-22T21:35:52.358Z,0
2023-04-22T21:42:12.370Z,0
2023-04-22T21:48:35.332Z,0
2023-04-22T21:54:55.357Z,0
2023-04-22T22:20:30.372Z,0
2023-04-22T22:26:50.336Z,0
2023-04-22T22:33:13.364Z,0
2023-04-22T22:39:33.373Z,0
2023-04-22T22:45:56.373Z,0
2023-04-22T22:52:16.368Z,0
2023-04-22T22:58:39.458Z,0
2023-04-22T23:04:59.406Z,0
2023-04-22T23:11:22.381Z,0
2023-04-22T23:17:42.375Z,0
2023-04-22T23:24:05.419Z,0
2023-04-22T23:30:25.380Z,0
2023-04-22T23:36:48.454Z,0
2023-04-22T23:43:08.384Z,0
2023-04-22T23:49:31.421Z,0
2023-04-22T23:55:51.407Z,0
